sensor_id;sensor_type;location;lat;lon;timestamp;P1;durP1;ratioP1;P2;durP2;ratioP2
68229;SDS011;55048;52.220;5.160;2022-12-10T00:01:14;55.88;;;21.30;;
68229;SDS011;55048;52.220;5.160;2022-12-10T00:03:42;57.63;;;22.33;;
68229;SDS011;55048;52.220;5.160;2022-12-10T00:06:10;60.13;;;22.88;;
68229;SDS011;55048;52.220;5.160;2022-12-10T00:08:40;49.08;;;18.65;;
68229;SDS011;55048;52.220;5.160;2022-12-10T00:11:06;65.63;;;23.70;;
68229;SDS011;55048;52.220;5.160;2022-12-10T00:13:34;61.30;;;23.83;;
68229;SDS011;55048;52.220;5.160;2022-12-10T00:16:00;52.30;;;19.38;;
68229;SDS011;55048;52.220;5.160;2022-12-10T00:18:30;57.60;;;22.02;;
68229;SDS011;55048;52.220;5.160;2022-12-10T00:20:55;65.30;;;23.35;;
68229;SDS011;55048;52.220;5.160;2022-12-10T00:23:21;60.03;;;20.70;;
68229;SDS011;55048;52.220;5.160;2022-12-10T00:25:46;61.95;;;22.50;;
68229;SDS011;55048;52.220;5.160;2022-12-10T00:28:12;44.85;;;17.63;;
68229;SDS011;55048;52.220;5.160;2022-12-10T00:30:37;39.60;;;16.90;;
68229;SDS011;55048;52.220;5.160;2022-12-10T00:33:03;62.05;;;23.05;;
68229;SDS011;55048;52.220;5.160;2022-12-10T00:35:29;45.67;;;16.48;;
68229;SDS011;55048;52.220;5.160;2022-12-10T00:37:54;55.17;;;20.80;;
68229;SDS011;55048;52.220;5.160;2022-12-10T00:40:21;55.90;;;21.85;;
68229;SDS011;55048;52.220;5.160;2022-12-10T00:42:46;53.38;;;21.52;;
68229;SDS011;55048;52.220;5.160;2022-12-10T00:45:12;53.85;;;21.13;;
68229;SDS011;55048;52.220;5.160;2022-12-10T00:47:37;62.75;;;24.88;;
68229;SDS011;55048;52.220;5.160;2022-12-10T00:50:02;59.17;;;22.17;;
68229;SDS011;55048;52.220;5.160;2022-12-10T00:52:28;60.13;;;20.90;;
68229;SDS011;55048;52.220;5.160;2022-12-10T00:54:56;53.55;;;18.88;;
68229;SDS011;55048;52.220;5.160;2022-12-10T00:57:21;52.20;;;18.75;;
68229;SDS011;55048;52.220;5.160;2022-12-10T00:59:47;49.25;;;18.88;;
68229;SDS011;55048;52.220;5.160;2022-12-10T01:02:12;48.72;;;16.50;;
68229;SDS011;55048;52.220;5.160;2022-12-10T01:04:38;51.63;;;18.40;;
68229;SDS011;55048;52.220;5.160;2022-12-10T01:07:05;62.25;;;19.70;;
68229;SDS011;55048;52.220;5.160;2022-12-10T01:09:31;67.78;;;20.38;;
68229;SDS011;55048;52.220;5.160;2022-12-10T01:11:57;60.45;;;18.52;;
68229;SDS011;55048;52.220;5.160;2022-12-10T01:14:27;59.70;;;18.73;;
68229;SDS011;55048;52.220;5.160;2022-12-10T01:16:56;48.90;;;17.55;;
68229;SDS011;55048;52.220;5.160;2022-12-10T01:19:24;72.78;;;20.23;;
68229;SDS011;55048;52.220;5.160;2022-12-10T01:21:50;86.15;;;22.83;;
68229;SDS011;55048;52.220;5.160;2022-12-10T01:24:17;65.47;;;20.27;;
68229;SDS011;55048;52.220;5.160;2022-12-10T01:26:43;71.75;;;17.95;;
68229;SDS011;55048;52.220;5.160;2022-12-10T01:29:09;102.15;;;20.23;;
68229;SDS011;55048;52.220;5.160;2022-12-10T01:34:05;57.80;;;17.70;;
68229;SDS011;55048;52.220;5.160;2022-12-10T01:36:42;81.70;;;17.48;;
68229;SDS011;55048;52.220;5.160;2022-12-10T01:39:11;60.25;;;12.90;;
68229;SDS011;55048;52.220;5.160;2022-12-10T01:41:45;58.78;;;16.83;;
68229;SDS011;55048;52.220;5.160;2022-12-10T01:46:41;65.93;;;13.95;;
68229;SDS011;55048;52.220;5.160;2022-12-10T01:49:09;104.90;;;15.88;;
68229;SDS011;55048;52.220;5.160;2022-12-10T01:51:41;84.90;;;14.60;;
68229;SDS011;55048;52.220;5.160;2022-12-10T01:54:09;89.75;;;14.57;;
68229;SDS011;55048;52.220;5.160;2022-12-10T01:56:40;32.03;;;8.70;;
68229;SDS011;55048;52.220;5.160;2022-12-10T01:59:09;56.92;;;11.45;;
68229;SDS011;55048;52.220;5.160;2022-12-10T02:01:51;70.28;;;16.13;;
68229;SDS011;55048;52.220;5.160;2022-12-10T02:04:29;80.20;;;17.02;;
68229;SDS011;55048;52.220;5.160;2022-12-10T02:12:40;89.57;;;17.35;;
68229;SDS011;55048;52.220;5.160;2022-12-10T02:17:51;62.42;;;17.67;;
68229;SDS011;55048;52.220;5.160;2022-12-10T02:20:22;85.60;;;17.40;;
68229;SDS011;55048;52.220;5.160;2022-12-10T02:25:24;74.13;;;17.52;;
68229;SDS011;55048;52.220;5.160;2022-12-10T02:28:03;112.78;;;22.52;;
68229;SDS011;55048;52.220;5.160;2022-12-10T02:30:51;143.23;;;21.50;;
68229;SDS011;55048;52.220;5.160;2022-12-10T02:33:19;99.57;;;17.33;;
68229;SDS011;55048;52.220;5.160;2022-12-10T02:35:47;121.75;;;22.13;;
68229;SDS011;55048;52.220;5.160;2022-12-10T02:38:32;121.10;;;20.45;;
68229;SDS011;55048;52.220;5.160;2022-12-10T02:41:02;83.63;;;19.60;;
68229;SDS011;55048;52.220;5.160;2022-12-10T02:43:33;136.05;;;20.60;;
68229;SDS011;55048;52.220;5.160;2022-12-10T02:45:59;140.30;;;22.00;;
68229;SDS011;55048;52.220;5.160;2022-12-10T02:48:29;142.33;;;21.33;;
68229;SDS011;55048;52.220;5.160;2022-12-10T02:50:56;140.55;;;20.92;;
68229;SDS011;55048;52.220;5.160;2022-12-10T02:53:21;121.68;;;21.40;;
68229;SDS011;55048;52.220;5.160;2022-12-10T02:58:29;142.88;;;22.17;;
68229;SDS011;55048;52.220;5.160;2022-12-10T03:01:21;119.13;;;19.92;;
68229;SDS011;55048;52.220;5.160;2022-12-10T03:04:16;198.57;;;23.73;;
68229;SDS011;55048;52.220;5.160;2022-12-10T03:06:56;186.07;;;26.35;;
68229;SDS011;55048;52.220;5.160;2022-12-10T03:09:30;210.73;;;25.02;;
68229;SDS011;55048;52.220;5.160;2022-12-10T03:12:02;144.35;;;21.05;;
68229;SDS011;55048;52.220;5.160;2022-12-10T03:14:41;189.10;;;23.40;;
68229;SDS011;55048;52.220;5.160;2022-12-10T03:17:08;136.65;;;21.13;;
68229;SDS011;55048;52.220;5.160;2022-12-10T03:19:40;112.43;;;20.08;;
68229;SDS011;55048;52.220;5.160;2022-12-10T03:22:09;125.32;;;20.95;;
68229;SDS011;55048;52.220;5.160;2022-12-10T03:24:37;138.23;;;17.58;;
68229;SDS011;55048;52.220;5.160;2022-12-10T03:27:06;139.13;;;18.48;;
68229;SDS011;55048;52.220;5.160;2022-12-10T03:29:35;162.35;;;21.23;;
68229;SDS011;55048;52.220;5.160;2022-12-10T03:32:04;167.05;;;21.33;;
68229;SDS011;55048;52.220;5.160;2022-12-10T03:34:30;146.60;;;20.33;;
68229;SDS011;55048;52.220;5.160;2022-12-10T03:36:57;144.20;;;19.20;;
68229;SDS011;55048;52.220;5.160;2022-12-10T03:39:24;222.63;;;23.45;;
68229;SDS011;55048;52.220;5.160;2022-12-10T03:41:50;248.98;;;26.55;;
68229;SDS011;55048;52.220;5.160;2022-12-10T03:44:26;237.57;;;22.75;;
68229;SDS011;55048;52.220;5.160;2022-12-10T03:49:21;212.10;;;23.10;;
68229;SDS011;55048;52.220;5.160;2022-12-10T03:51:47;209.18;;;21.60;;
68229;SDS011;55048;52.220;5.160;2022-12-10T03:54:12;207.75;;;22.48;;
68229;SDS011;55048;52.220;5.160;2022-12-10T03:56:38;171.88;;;18.08;;
68229;SDS011;55048;52.220;5.160;2022-12-10T03:59:03;272.90;;;23.60;;
68229;SDS011;55048;52.220;5.160;2022-12-10T04:01:28;114.55;;;15.75;;
68229;SDS011;55048;52.220;5.160;2022-12-10T04:03:54;232.50;;;22.10;;
68229;SDS011;55048;52.220;5.160;2022-12-10T04:06:19;160.75;;;20.40;;
68229;SDS011;55048;52.220;5.160;2022-12-10T04:08:45;191.10;;;20.98;;
68229;SDS011;55048;52.220;5.160;2022-12-10T04:11:12;105.18;;;14.95;;
68229;SDS011;55048;52.220;5.160;2022-12-10T04:13:38;183.05;;;22.80;;
68229;SDS011;55048;52.220;5.160;2022-12-10T04:16:23;127.25;;;16.98;;
68229;SDS011;55048;52.220;5.160;2022-12-10T04:18:53;209.77;;;22.05;;
68229;SDS011;55048;52.220;5.160;2022-12-10T04:21:19;180.52;;;22.17;;
68229;SDS011;55048;52.220;5.160;2022-12-10T04:24:03;113.78;;;17.48;;
68229;SDS011;55048;52.220;5.160;2022-12-10T04:26:47;192.15;;;20.55;;
68229;SDS011;55048;52.220;5.160;2022-12-10T04:29:19;206.52;;;22.33;;
68229;SDS011;55048;52.220;5.160;2022-12-10T04:31:48;217.98;;;22.58;;
68229;SDS011;55048;52.220;5.160;2022-12-10T04:34:13;158.63;;;20.25;;
68229;SDS011;55048;52.220;5.160;2022-12-10T04:36:39;165.60;;;20.70;;
68229;SDS011;55048;52.220;5.160;2022-12-10T04:39:04;113.00;;;16.90;;
68229;SDS011;55048;52.220;5.160;2022-12-10T04:41:30;123.63;;;19.67;;
68229;SDS011;55048;52.220;5.160;2022-12-10T04:43:56;112.82;;;17.75;;
68229;SDS011;55048;52.220;5.160;2022-12-10T04:46:21;184.05;;;20.95;;
68229;SDS011;55048;52.220;5.160;2022-12-10T04:48:47;98.65;;;20.08;;
68229;SDS011;55048;52.220;5.160;2022-12-10T04:51:12;128.95;;;20.00;;
68229;SDS011;55048;52.220;5.160;2022-12-10T04:53:38;120.63;;;20.20;;
68229;SDS011;55048;52.220;5.160;2022-12-10T04:56:04;205.75;;;24.42;;
68229;SDS011;55048;52.220;5.160;2022-12-10T04:58:31;134.68;;;23.23;;
68229;SDS011;55048;52.220;5.160;2022-12-10T05:01:03;127.38;;;18.85;;
68229;SDS011;55048;52.220;5.160;2022-12-10T05:03:30;117.13;;;17.58;;
68229;SDS011;55048;52.220;5.160;2022-12-10T05:05:59;153.50;;;23.02;;
68229;SDS011;55048;52.220;5.160;2022-12-10T05:08:29;150.65;;;21.00;;
68229;SDS011;55048;52.220;5.160;2022-12-10T05:10:59;244.85;;;26.50;;
68229;SDS011;55048;52.220;5.160;2022-12-10T05:13:26;245.02;;;24.02;;
68229;SDS011;55048;52.220;5.160;2022-12-10T05:15:52;81.22;;;15.98;;
68229;SDS011;55048;52.220;5.160;2022-12-10T05:18:17;187.18;;;22.70;;
68229;SDS011;55048;52.220;5.160;2022-12-10T05:20:43;114.65;;;17.90;;
68229;SDS011;55048;52.220;5.160;2022-12-10T05:23:08;141.30;;;18.13;;
68229;SDS011;55048;52.220;5.160;2022-12-10T05:28:29;154.90;;;21.15;;
68229;SDS011;55048;52.220;5.160;2022-12-10T05:30:56;126.55;;;17.30;;
68229;SDS011;55048;52.220;5.160;2022-12-10T05:33:22;148.65;;;19.40;;
68229;SDS011;55048;52.220;5.160;2022-12-10T05:35:55;140.05;;;18.73;;
68229;SDS011;55048;52.220;5.160;2022-12-10T05:38:22;127.05;;;17.50;;
68229;SDS011;55048;52.220;5.160;2022-12-10T05:40:48;48.25;;;12.20;;
68229;SDS011;55048;52.220;5.160;2022-12-10T05:43:14;184.55;;;23.20;;
68229;SDS011;55048;52.220;5.160;2022-12-10T05:45:39;62.55;;;14.98;;
68229;SDS011;55048;52.220;5.160;2022-12-10T05:48:05;69.20;;;12.30;;
68229;SDS011;55048;52.220;5.160;2022-12-10T05:50:31;100.13;;;18.05;;
68229;SDS011;55048;52.220;5.160;2022-12-10T05:52:56;163.50;;;20.55;;
68229;SDS011;55048;52.220;5.160;2022-12-10T05:55:22;70.00;;;17.30;;
68229;SDS011;55048;52.220;5.160;2022-12-10T05:57:47;57.28;;;15.52;;
68229;SDS011;55048;52.220;5.160;2022-12-10T06:00:13;98.10;;;17.40;;
68229;SDS011;55048;52.220;5.160;2022-12-10T06:02:38;105.72;;;17.58;;
68229;SDS011;55048;52.220;5.160;2022-12-10T06:05:04;105.20;;;16.67;;
68229;SDS011;55048;52.220;5.160;2022-12-10T06:07:30;101.20;;;19.48;;
68229;SDS011;55048;52.220;5.160;2022-12-10T06:09:55;129.48;;;18.30;;
68229;SDS011;55048;52.220;5.160;2022-12-10T06:12:21;141.32;;;19.15;;
68229;SDS011;55048;52.220;5.160;2022-12-10T06:14:46;133.45;;;18.33;;
68229;SDS011;55048;52.220;5.160;2022-12-10T06:17:12;53.75;;;12.43;;
68229;SDS011;55048;52.220;5.160;2022-12-10T06:19:37;81.50;;;18.10;;
68229;SDS011;55048;52.220;5.160;2022-12-10T06:22:02;53.63;;;15.80;;
68229;SDS011;55048;52.220;5.160;2022-12-10T06:24:28;75.45;;;13.43;;
68229;SDS011;55048;52.220;5.160;2022-12-10T06:26:54;67.28;;;16.02;;
68229;SDS011;55048;52.220;5.160;2022-12-10T06:29:19;57.53;;;17.50;;
68229;SDS011;55048;52.220;5.160;2022-12-10T06:31:45;101.25;;;17.05;;
68229;SDS011;55048;52.220;5.160;2022-12-10T06:34:10;81.75;;;17.52;;
68229;SDS011;55048;52.220;5.160;2022-12-10T06:36:36;102.40;;;17.88;;
68229;SDS011;55048;52.220;5.160;2022-12-10T06:39:02;94.18;;;17.73;;
68229;SDS011;55048;52.220;5.160;2022-12-10T06:41:28;57.88;;;14.43;;
68229;SDS011;55048;52.220;5.160;2022-12-10T06:43:54;101.90;;;18.08;;
68229;SDS011;55048;52.220;5.160;2022-12-10T06:46:23;57.30;;;13.33;;
68229;SDS011;55048;52.220;5.160;2022-12-10T06:48:50;42.20;;;11.85;;
68229;SDS011;55048;52.220;5.160;2022-12-10T06:51:16;74.13;;;15.93;;
68229;SDS011;55048;52.220;5.160;2022-12-10T06:53:42;75.72;;;16.40;;
68229;SDS011;55048;52.220;5.160;2022-12-10T06:56:11;89.03;;;18.42;;
68229;SDS011;55048;52.220;5.160;2022-12-10T06:58:39;78.47;;;15.35;;
68229;SDS011;55048;52.220;5.160;2022-12-10T07:01:17;68.07;;;15.05;;
68229;SDS011;55048;52.220;5.160;2022-12-10T07:03:47;93.07;;;15.75;;
68229;SDS011;55048;52.220;5.160;2022-12-10T07:06:20;65.82;;;15.20;;
68229;SDS011;55048;52.220;5.160;2022-12-10T07:08:48;69.45;;;10.60;;
68229;SDS011;55048;52.220;5.160;2022-12-10T07:11:15;52.08;;;11.45;;
68229;SDS011;55048;52.220;5.160;2022-12-10T07:13:42;76.43;;;17.00;;
68229;SDS011;55048;52.220;5.160;2022-12-10T07:16:14;89.47;;;16.60;;
68229;SDS011;55048;52.220;5.160;2022-12-10T07:18:42;47.28;;;13.55;;
68229;SDS011;55048;52.220;5.160;2022-12-10T07:23:43;97.40;;;18.30;;
68229;SDS011;55048;52.220;5.160;2022-12-10T07:26:08;77.53;;;14.77;;
68229;SDS011;55048;52.220;5.160;2022-12-10T07:28:34;85.25;;;16.73;;
68229;SDS011;55048;52.220;5.160;2022-12-10T07:31:00;97.72;;;16.50;;
68229;SDS011;55048;52.220;5.160;2022-12-10T07:33:30;83.35;;;17.15;;
68229;SDS011;55048;52.220;5.160;2022-12-10T07:35:56;46.33;;;14.98;;
68229;SDS011;55048;52.220;5.160;2022-12-10T07:38:22;98.25;;;16.42;;
68229;SDS011;55048;52.220;5.160;2022-12-10T07:40:48;62.55;;;16.10;;
68229;SDS011;55048;52.220;5.160;2022-12-10T07:43:15;62.05;;;14.20;;
68229;SDS011;55048;52.220;5.160;2022-12-10T07:45:41;107.45;;;16.70;;
68229;SDS011;55048;52.220;5.160;2022-12-10T07:48:07;62.67;;;14.55;;
68229;SDS011;55048;52.220;5.160;2022-12-10T07:50:32;79.53;;;15.77;;
68229;SDS011;55048;52.220;5.160;2022-12-10T07:52:58;88.30;;;16.27;;
68229;SDS011;55048;52.220;5.160;2022-12-10T07:55:23;98.80;;;16.80;;
68229;SDS011;55048;52.220;5.160;2022-12-10T07:57:48;68.28;;;15.80;;
68229;SDS011;55048;52.220;5.160;2022-12-10T08:00:14;62.67;;;15.68;;
68229;SDS011;55048;52.220;5.160;2022-12-10T08:02:39;64.38;;;17.38;;
68229;SDS011;55048;52.220;5.160;2022-12-10T08:05:05;70.38;;;16.33;;
68229;SDS011;55048;52.220;5.160;2022-12-10T08:07:31;47.95;;;15.90;;
68229;SDS011;55048;52.220;5.160;2022-12-10T08:09:57;64.95;;;14.93;;
68229;SDS011;55048;52.220;5.160;2022-12-10T08:12:22;91.57;;;15.98;;
68229;SDS011;55048;52.220;5.160;2022-12-10T08:14:48;70.80;;;15.57;;
68229;SDS011;55048;52.220;5.160;2022-12-10T08:17:13;70.43;;;16.52;;
68229;SDS011;55048;52.220;5.160;2022-12-10T08:19:39;58.03;;;14.10;;
68229;SDS011;55048;52.220;5.160;2022-12-10T08:22:05;52.15;;;16.00;;
68229;SDS011;55048;52.220;5.160;2022-12-10T08:24:31;51.38;;;13.20;;
68229;SDS011;55048;52.220;5.160;2022-12-10T08:26:56;119.00;;;16.70;;
68229;SDS011;55048;52.220;5.160;2022-12-10T08:29:22;47.40;;;12.45;;
68229;SDS011;55048;52.220;5.160;2022-12-10T08:31:47;63.13;;;14.77;;
68229;SDS011;55048;52.220;5.160;2022-12-10T08:34:14;69.53;;;13.95;;
68229;SDS011;55048;52.220;5.160;2022-12-10T08:36:41;40.03;;;11.93;;
68229;SDS011;55048;52.220;5.160;2022-12-10T08:39:07;34.13;;;11.07;;
68229;SDS011;55048;52.220;5.160;2022-12-10T08:41:35;52.03;;;14.38;;
68229;SDS011;55048;52.220;5.160;2022-12-10T08:44:01;40.45;;;13.45;;
68229;SDS011;55048;52.220;5.160;2022-12-10T08:46:27;36.75;;;14.13;;
68229;SDS011;55048;52.220;5.160;2022-12-10T08:48:53;60.22;;;17.20;;
68229;SDS011;55048;52.220;5.160;2022-12-10T08:51:19;43.25;;;12.63;;
68229;SDS011;55048;52.220;5.160;2022-12-10T08:53:45;81.40;;;16.30;;
68229;SDS011;55048;52.220;5.160;2022-12-10T08:56:11;44.83;;;13.88;;
68229;SDS011;55048;52.220;5.160;2022-12-10T08:58:37;71.35;;;17.40;;
68229;SDS011;55048;52.220;5.160;2022-12-10T09:01:07;80.97;;;15.25;;
68229;SDS011;55048;52.220;5.160;2022-12-10T09:03:34;86.70;;;17.20;;
68229;SDS011;55048;52.220;5.160;2022-12-10T09:06:03;56.92;;;17.77;;
68229;SDS011;55048;52.220;5.160;2022-12-10T09:08:33;72.82;;;17.10;;
68229;SDS011;55048;52.220;5.160;2022-12-10T09:11:09;75.55;;;18.95;;
68229;SDS011;55048;52.220;5.160;2022-12-10T09:13:37;173.55;;;22.50;;
68229;SDS011;55048;52.220;5.160;2022-12-10T09:16:02;93.35;;;20.92;;
68229;SDS011;55048;52.220;5.160;2022-12-10T09:18:28;77.93;;;18.42;;
68229;SDS011;55048;52.220;5.160;2022-12-10T09:20:54;63.30;;;13.60;;
68229;SDS011;55048;52.220;5.160;2022-12-10T09:23:19;83.57;;;17.83;;
68229;SDS011;55048;52.220;5.160;2022-12-10T09:25:45;83.38;;;18.90;;
68229;SDS011;55048;52.220;5.160;2022-12-10T09:28:11;86.10;;;19.55;;
68229;SDS011;55048;52.220;5.160;2022-12-10T09:30:36;58.92;;;17.48;;
68229;SDS011;55048;52.220;5.160;2022-12-10T09:33:01;51.85;;;16.48;;
68229;SDS011;55048;52.220;5.160;2022-12-10T09:35:27;73.22;;;17.05;;
68229;SDS011;55048;52.220;5.160;2022-12-10T09:37:52;35.00;;;11.50;;
68229;SDS011;55048;52.220;5.160;2022-12-10T09:40:18;64.50;;;18.30;;
68229;SDS011;55048;52.220;5.160;2022-12-10T09:42:59;67.82;;;19.52;;
68229;SDS011;55048;52.220;5.160;2022-12-10T09:45:34;66.93;;;18.70;;
68229;SDS011;55048;52.220;5.160;2022-12-10T09:48:20;68.45;;;20.48;;
68229;SDS011;55048;52.220;5.160;2022-12-10T09:53:42;83.55;;;21.85;;
68229;SDS011;55048;52.220;5.160;2022-12-10T09:56:14;76.97;;;21.23;;
68229;SDS011;55048;52.220;5.160;2022-12-10T09:58:46;82.03;;;20.15;;
68229;SDS011;55048;52.220;5.160;2022-12-10T10:01:13;71.72;;;18.88;;
68229;SDS011;55048;52.220;5.160;2022-12-10T10:03:41;92.82;;;22.30;;
68229;SDS011;55048;52.220;5.160;2022-12-10T10:06:11;85.85;;;21.55;;
68229;SDS011;55048;52.220;5.160;2022-12-10T10:08:48;106.55;;;21.60;;
68229;SDS011;55048;52.220;5.160;2022-12-10T10:11:19;79.97;;;20.20;;
68229;SDS011;55048;52.220;5.160;2022-12-10T10:13:55;75.87;;;19.70;;
68229;SDS011;55048;52.220;5.160;2022-12-10T10:16:25;103.75;;;23.38;;
68229;SDS011;55048;52.220;5.160;2022-12-10T10:18:59;84.22;;;22.13;;
68229;SDS011;55048;52.220;5.160;2022-12-10T10:21:52;74.20;;;20.52;;
68229;SDS011;55048;52.220;5.160;2022-12-10T10:24:19;89.88;;;20.90;;
68229;SDS011;55048;52.220;5.160;2022-12-10T10:26:48;88.30;;;20.27;;
68229;SDS011;55048;52.220;5.160;2022-12-10T10:29:17;85.00;;;21.60;;
68229;SDS011;55048;52.220;5.160;2022-12-10T10:31:45;86.90;;;22.73;;
68229;SDS011;55048;52.220;5.160;2022-12-10T10:34:13;74.95;;;21.35;;
68229;SDS011;55048;52.220;5.160;2022-12-10T10:36:42;80.10;;;22.23;;
68229;SDS011;55048;52.220;5.160;2022-12-10T10:39:09;78.13;;;22.92;;
68229;SDS011;55048;52.220;5.160;2022-12-10T10:41:38;97.13;;;25.98;;
68229;SDS011;55048;52.220;5.160;2022-12-10T10:44:05;108.57;;;24.85;;
68229;SDS011;55048;52.220;5.160;2022-12-10T10:46:48;74.55;;;19.25;;
68229;SDS011;55048;52.220;5.160;2022-12-10T10:49:23;56.55;;;14.60;;
68229;SDS011;55048;52.220;5.160;2022-12-10T10:52:05;85.28;;;19.35;;
68229;SDS011;55048;52.220;5.160;2022-12-10T10:54:38;88.60;;;21.63;;
68229;SDS011;55048;52.220;5.160;2022-12-10T10:57:27;96.82;;;17.63;;
68229;SDS011;55048;52.220;5.160;2022-12-10T11:02:49;100.65;;;16.38;;
68229;SDS011;55048;52.220;5.160;2022-12-10T11:05:25;67.55;;;19.05;;
68229;SDS011;55048;52.220;5.160;2022-12-10T11:08:04;91.65;;;20.67;;
68229;SDS011;55048;52.220;5.160;2022-12-10T11:10:37;59.97;;;18.55;;
68229;SDS011;55048;52.220;5.160;2022-12-10T11:13:22;95.85;;;21.67;;
68229;SDS011;55048;52.220;5.160;2022-12-10T11:15:57;92.28;;;22.90;;
68229;SDS011;55048;52.220;5.160;2022-12-10T11:18:35;82.32;;;21.35;;
68229;SDS011;55048;52.220;5.160;2022-12-10T11:21:08;113.68;;;20.02;;
68229;SDS011;55048;52.220;5.160;2022-12-10T11:23:43;66.18;;;17.20;;
68229;SDS011;55048;52.220;5.160;2022-12-10T11:29:07;125.72;;;21.73;;
68229;SDS011;55048;52.220;5.160;2022-12-10T11:31:55;57.55;;;16.48;;
68229;SDS011;55048;52.220;5.160;2022-12-10T11:37:18;82.82;;;19.55;;
68229;SDS011;55048;52.220;5.160;2022-12-10T11:45:29;42.00;;;11.88;;
68229;SDS011;55048;52.220;5.160;2022-12-10T11:48:31;83.72;;;20.05;;
68229;SDS011;55048;52.220;5.160;2022-12-10T11:53:56;62.55;;;17.25;;
68229;SDS011;55048;52.220;5.160;2022-12-10T11:56:39;77.38;;;20.42;;
68229;SDS011;55048;52.220;5.160;2022-12-10T11:59:15;74.65;;;20.10;;
68229;SDS011;55048;52.220;5.160;2022-12-10T12:04:54;91.03;;;23.42;;
68229;SDS011;55048;52.220;5.160;2022-12-10T12:07:53;57.47;;;12.32;;
68229;SDS011;55048;52.220;5.160;2022-12-10T12:13:18;58.53;;;17.23;;
68229;SDS011;55048;52.220;5.160;2022-12-10T12:15:54;64.55;;;18.05;;
68229;SDS011;55048;52.220;5.160;2022-12-10T12:18:27;79.75;;;19.08;;
68229;SDS011;55048;52.220;5.160;2022-12-10T12:21:13;77.63;;;20.08;;
68229;SDS011;55048;52.220;5.160;2022-12-10T12:26:31;73.63;;;20.55;;
68229;SDS011;55048;52.220;5.160;2022-12-10T12:32:20;68.40;;;15.43;;
68229;SDS011;55048;52.220;5.160;2022-12-10T12:37:48;53.53;;;14.43;;
68229;SDS011;55048;52.220;5.160;2022-12-10T12:42:58;66.22;;;17.98;;
68229;SDS011;55048;52.220;5.160;2022-12-10T12:45:38;77.25;;;19.42;;
68229;SDS011;55048;52.220;5.160;2022-12-10T12:51:14;77.57;;;21.90;;
68229;SDS011;55048;52.220;5.160;2022-12-10T12:53:44;100.93;;;24.85;;
68229;SDS011;55048;52.220;5.160;2022-12-10T12:58:59;79.35;;;21.02;;
68229;SDS011;55048;52.220;5.160;2022-12-10T13:01:43;77.85;;;17.98;;
68229;SDS011;55048;52.220;5.160;2022-12-10T13:04:16;65.90;;;17.40;;
68229;SDS011;55048;52.220;5.160;2022-12-10T13:06:42;55.35;;;13.70;;
68229;SDS011;55048;52.220;5.160;2022-12-10T13:09:46;60.72;;;16.95;;
68229;SDS011;55048;52.220;5.160;2022-12-10T13:15:22;67.03;;;16.13;;
68229;SDS011;55048;52.220;5.160;2022-12-10T13:41:27;59.58;;;14.77;;
68229;SDS011;55048;52.220;5.160;2022-12-10T13:44:24;57.03;;;16.95;;
68229;SDS011;55048;52.220;5.160;2022-12-10T13:49:47;58.80;;;18.02;;
68229;SDS011;55048;52.220;5.160;2022-12-10T13:58:46;57.88;;;13.80;;
68229;SDS011;55048;52.220;5.160;2022-12-10T14:01:23;62.25;;;15.57;;
68229;SDS011;55048;52.220;5.160;2022-12-10T14:06:46;35.13;;;9.45;;
68229;SDS011;55048;52.220;5.160;2022-12-10T14:10:15;41.97;;;10.75;;
68229;SDS011;55048;52.220;5.160;2022-12-10T14:12:15;65.32;;;15.70;;
68229;SDS011;55048;52.220;5.160;2022-12-10T14:14:45;61.05;;;16.70;;
68229;SDS011;55048;52.220;5.160;2022-12-10T14:17:16;56.53;;;17.92;;
68229;SDS011;55048;52.220;5.160;2022-12-10T14:19:45;58.03;;;13.07;;
68229;SDS011;55048;52.220;5.160;2022-12-10T14:22:27;53.65;;;16.08;;
68229;SDS011;55048;52.220;5.160;2022-12-10T14:25:00;63.67;;;17.52;;
68229;SDS011;55048;52.220;5.160;2022-12-10T14:27:30;50.47;;;14.07;;
68229;SDS011;55048;52.220;5.160;2022-12-10T14:30:03;74.75;;;17.38;;
68229;SDS011;55048;52.220;5.160;2022-12-10T14:32:33;51.85;;;13.50;;
68229;SDS011;55048;52.220;5.160;2022-12-10T14:35:00;66.85;;;16.48;;
68229;SDS011;55048;52.220;5.160;2022-12-10T14:37:29;92.70;;;17.48;;
68229;SDS011;55048;52.220;5.160;2022-12-10T14:39:58;71.90;;;17.85;;
68229;SDS011;55048;52.220;5.160;2022-12-10T14:42:24;69.72;;;17.27;;
68229;SDS011;55048;52.220;5.160;2022-12-10T14:44:56;89.72;;;17.40;;
68229;SDS011;55048;52.220;5.160;2022-12-10T14:47:23;46.25;;;12.65;;
68229;SDS011;55048;52.220;5.160;2022-12-10T14:49:50;83.38;;;17.65;;
68229;SDS011;55048;52.220;5.160;2022-12-10T14:52:19;68.60;;;15.38;;
68229;SDS011;55048;52.220;5.160;2022-12-10T14:54:57;80.28;;;17.25;;
68229;SDS011;55048;52.220;5.160;2022-12-10T14:57:27;82.88;;;19.08;;
68229;SDS011;55048;52.220;5.160;2022-12-10T15:00:04;76.55;;;19.40;;
68229;SDS011;55048;52.220;5.160;2022-12-10T15:02:43;29.05;;;10.60;;
68229;SDS011;55048;52.220;5.160;2022-12-10T15:05:16;64.05;;;17.67;;
68229;SDS011;55048;52.220;5.160;2022-12-10T15:07:48;69.30;;;18.95;;
68229;SDS011;55048;52.220;5.160;2022-12-10T15:10:37;72.57;;;16.10;;
68229;SDS011;55048;52.220;5.160;2022-12-10T15:13:16;78.10;;;18.98;;
68229;SDS011;55048;52.220;5.160;2022-12-10T15:15:49;111.13;;;20.30;;
68229;SDS011;55048;52.220;5.160;2022-12-10T15:18:18;79.85;;;19.55;;
68229;SDS011;55048;52.220;5.160;2022-12-10T15:21:03;66.50;;;16.48;;
68229;SDS011;55048;52.220;5.160;2022-12-10T15:28:24;81.57;;;19.35;;
68229;SDS011;55048;52.220;5.160;2022-12-10T15:33:40;94.53;;;21.55;;
68229;SDS011;55048;52.220;5.160;2022-12-10T15:36:16;106.30;;;21.63;;
68229;SDS011;55048;52.220;5.160;2022-12-10T15:38:50;85.78;;;19.92;;
68229;SDS011;55048;52.220;5.160;2022-12-10T15:44:04;71.90;;;18.80;;
68229;SDS011;55048;52.220;5.160;2022-12-10T15:46:31;85.20;;;17.67;;
68229;SDS011;55048;52.220;5.160;2022-12-10T15:48:57;74.95;;;16.67;;
68229;SDS011;55048;52.220;5.160;2022-12-10T15:51:23;95.75;;;19.23;;
68229;SDS011;55048;52.220;5.160;2022-12-10T15:53:49;91.47;;;20.70;;
68229;SDS011;55048;52.220;5.160;2022-12-10T15:56:15;89.32;;;19.58;;
68229;SDS011;55048;52.220;5.160;2022-12-10T15:58:40;105.22;;;19.48;;
68229;SDS011;55048;52.220;5.160;2022-12-10T16:01:08;99.72;;;19.20;;
68229;SDS011;55048;52.220;5.160;2022-12-10T16:03:37;93.72;;;19.15;;
68229;SDS011;55048;52.220;5.160;2022-12-10T16:06:05;118.05;;;20.58;;
68229;SDS011;55048;52.220;5.160;2022-12-10T16:08:31;91.35;;;20.38;;
68229;SDS011;55048;52.220;5.160;2022-12-10T16:11:15;121.63;;;21.23;;
68229;SDS011;55048;52.220;5.160;2022-12-10T16:13:45;102.20;;;20.15;;
68229;SDS011;55048;52.220;5.160;2022-12-10T16:16:18;134.23;;;21.50;;
68229;SDS011;55048;52.220;5.160;2022-12-10T16:19:04;122.93;;;20.63;;
68229;SDS011;55048;52.220;5.160;2022-12-10T16:21:35;90.10;;;17.02;;
68229;SDS011;55048;52.220;5.160;2022-12-10T16:24:00;136.73;;;19.85;;
68229;SDS011;55048;52.220;5.160;2022-12-10T16:26:26;107.78;;;20.92;;
68229;SDS011;55048;52.220;5.160;2022-12-10T16:28:54;121.95;;;20.27;;
68229;SDS011;55048;52.220;5.160;2022-12-10T16:31:20;77.57;;;18.35;;
68229;SDS011;55048;52.220;5.160;2022-12-10T16:33:47;98.82;;;18.48;;